Time;durP1;ratioP1;P1;durP2;ratioP2;P2;SDS_P1;SDS_P2;PMS_P1;PMS_P2;Temp;Humidity;BMP_temperature;BMP_pressure;BME280_temperature;BME280_humidity;BME280_pressure;Samples;Min_cycle;Max_cycle;Signal;HPM_P1;HPM_P2
2022/10/07 00:01:42;;;;;;;25.10;13.73;;;;;;;;;;4972197;28;20034;-58
2022/10/07 00:04:08;;;;;;;23.60;13.52;;;;;;;;;;4971981;28;20033;-57
2022/10/07 00:06:34;;;;;;;30.55;15.07;;;;;;;;;;4971884;28;20031;-57
2022/10/07 00:09:01;;;;;;;27.20;15.18;;;;;;;;;;4972545;28;20712;-57
2022/10/07 00:11:28;;;;;;;26.75;15.23;;;;;;;;;;4972260;28;20023;-58
2022/10/07 00:13:55;;;;;;;25.10;14.55;;;;;;;;;;4972261;28;20437;-57
2022/10/07 00:16:24;;;;;;;25.98;15.63;;;;;;;;;;4972380;28;20065;-56
2022/10/07 00:18:51;;;;;;;24.50;14.77;;;;;;;;;;4972147;28;20483;-56
2022/10/07 00:21:18;;;;;;;24.77;14.30;;;;;;;;;;4972107;28;20031;-56
2022/10/07 00:23:44;;;;;;;24.92;13.45;;;;;;;;;;4971908;28;20031;-56
2022/10/07 00:26:12;;;;;;;23.17;13.18;;;;;;;;;;4972186;28;20038;-57
2022/10/07 00:28:38;;;;;;;25.55;14.00;;;;;;;;;;4971954;28;20515;-56
2022/10/07 00:31:08;;;;;;;24.85;14.75;;;;;;;;;;4971979;28;20031;-57
2022/10/07 00:33:36;;;;;;;23.73;14.85;;;;;;;;;;4972008;28;20537;-56
2022/10/07 00:36:06;;;;;;;22.73;13.82;;;;;;;;;;4971991;28;20130;-57
2022/10/07 00:38:32;;;;;;;24.80;15.18;;;;;;;;;;4972033;28;20049;-56
2022/10/07 00:40:58;;;;;;;25.17;14.98;;;;;;;;;;4971918;28;20051;-56
2022/10/07 00:43:25;;;;;;;26.63;16.20;;;;;;;;;;4971516;28;20047;-56
2022/10/07 00:45:53;;;;;;;28.90;15.95;;;;;;;;;;4972005;28;20035;-56
2022/10/07 00:48:22;;;;;;;30.70;16.48;;;;;;;;;;4971810;28;20027;-56
2022/10/07 00:50:49;;;;;;;28.58;17.27;;;;;;;;;;4971951;28;20019;-56
2022/10/07 00:53:15;;;;;;;33.97;16.08;;;;;;;;;;4971733;28;20023;-57
2022/10/07 00:55:42;;;;;;;25.90;15.50;;;;;;;;;;4972004;28;20100;-56
2022/10/07 00:58:08;;;;;;;25.02;16.00;;;;;;;;;;4971918;28;20039;-56
2022/10/07 01:00:34;;;;;;;26.83;16.63;;;;;;;;;;4972068;28;20058;-56
2022/10/07 01:03:01;;;;;;;28.55;17.90;;;;;;;;;;4974312;28;20113;-56
2022/10/07 01:05:27;;;;;;;29.65;18.35;;;;;;;;;;4975552;28;20031;-56
2022/10/07 01:07:53;;;;;;;27.38;16.83;;;;;;;;;;4975329;28;20102;-56
2022/10/07 01:10:20;;;;;;;30.15;18.70;;;;;;;;;;4975463;28;20030;-56
2022/10/07 01:13:04;;;;;;;28.20;18.33;;;;;;;;;;4975500;28;20023;-57
2022/10/07 01:15:31;;;;;;;28.80;17.75;;;;;;;;;;4975325;28;20030;-68
2022/10/07 01:18:09;;;;;;;27.15;16.80;;;;;;;;;;4975027;28;20051;-56
2022/10/07 01:20:44;;;;;;;33.50;17.55;;;;;;;;;;4975152;28;20051;-57
2022/10/07 01:23:13;;;;;;;30.15;17.35;;;;;;;;;;4975060;28;20109;-57
2022/10/07 01:25:48;;;;;;;30.98;17.83;;;;;;;;;;4975284;28;20059;-57
2022/10/07 01:28:53;;;;;;;28.10;18.17;;;;;;;;;;4975074;28;20035;-56
2022/10/07 01:31:21;;;;;;;30.08;17.15;;;;;;;;;;4877498;29;20037;-57
2022/10/07 01:33:48;;;;;;;24.77;16.88;;;;;;;;;;4877561;29;20034;-57
2022/10/07 01:36:16;;;;;;;28.17;17.65;;;;;;;;;;4877495;29;20052;-57
2022/10/07 01:38:45;;;;;;;31.75;17.80;;;;;;;;;;4877500;29;20029;-56
2022/10/07 01:41:14;;;;;;;29.00;17.48;;;;;;;;;;4877052;29;20052;-57
2022/10/07 01:43:40;;;;;;;30.63;18.55;;;;;;;;;;4876393;29;20161;-57
2022/10/07 01:46:08;;;;;;;31.60;18.45;;;;;;;;;;4877255;29;20188;-56
2022/10/07 01:48:34;;;;;;;27.33;18.25;;;;;;;;;;4876586;29;20168;-57
2022/10/07 01:51:01;;;;;;;30.33;17.65;;;;;;;;;;4877098;29;20081;-57
2022/10/07 01:53:27;;;;;;;29.20;17.85;;;;;;;;;;4876607;29;20041;-57
2022/10/07 01:56:07;;;;;;;28.73;18.27;;;;;;;;;;4877106;29;20044;-58
2022/10/07 01:58:49;;;;;;;31.08;19.30;;;;;;;;;;4876450;29;20036;-57
2022/10/07 02:01:15;;;;;;;35.13;18.83;;;;;;;;;;4894388;28;20030;-57
2022/10/07 02:03:49;;;;;;;29.88;18.98;;;;;;;;;;4975686;28;20023;-57
2022/10/07 02:06:30;;;;;;;31.00;19.75;;;;;;;;;;4974109;28;20086;-57
2022/10/07 02:08:59;;;;;;;31.42;20.67;;;;;;;;;;4973980;28;20073;-57
2022/10/07 02:11:27;;;;;;;29.95;20.35;;;;;;;;;;4974443;28;20480;-57
2022/10/07 02:14:03;;;;;;;38.83;21.95;;;;;;;;;;4972808;28;20565;-57
2022/10/07 02:16:43;;;;;;;32.63;20.08;;;;;;;;;;4973806;28;20042;-57
2022/10/07 02:19:14;;;;;;;30.45;21.25;;;;;;;;;;4974133;28;20034;-57
2022/10/07 02:21:41;;;;;;;29.45;20.70;;;;;;;;;;4973842;28;20031;-57
2022/10/07 02:24:08;;;;;;;36.15;21.17;;;;;;;;;;4974008;28;20026;-60
2022/10/07 02:26:35;;;;;;;33.33;20.83;;;;;;;;;;4973878;28;20038;-60
2022/10/07 02:29:03;;;;;;;32.42;20.83;;;;;;;;;;4973841;28;20117;-57
2022/10/07 02:31:30;;;;;;;32.83;22.33;;;;;;;;;;4974024;28;20023;-57
2022/10/07 02:33:57;;;;;;;34.33;22.75;;;;;;;;;;4973811;28;20084;-58
2022/10/07 02:36:50;;;;;;;35.03;21.50;;;;;;;;;;4973738;28;20085;-57
2022/10/07 02:39:16;;;;;;;29.40;20.95;;;;;;;;;;4969671;28;20035;-57
2022/10/07 02:41:51;;;;;;;32.55;20.25;;;;;;;;;;4973881;28;20489;-57
2022/10/07 02:44:24;;;;;;;31.52;20.90;;;;;;;;;;4973382;28;20186;-57
2022/10/07 02:47:02;;;;;;;31.35;20.60;;;;;;;;;;4973679;28;20541;-57
2022/10/07 02:49:29;;;;;;;30.33;19.45;;;;;;;;;;4973772;28;20459;-57
2022/10/07 02:52:04;;;;;;;33.33;21.55;;;;;;;;;;4973559;28;20023;-56
2022/10/07 02:54:58;;;;;;;30.42;21.25;;;;;;;;;;4973069;28;20027;-57
2022/10/07 02:57:25;;;;;;;34.67;21.08;;;;;;;;;;4970207;28;20092;-57
2022/10/07 02:59:52;;;;;;;30.75;20.65;;;;;;;;;;4973439;28;20070;-57
2022/10/07 03:02:23;;;;;;;31.77;21.52;;;;;;;;;;4973055;28;20478;-56
2022/10/07 03:04:49;;;;;;;22.23;14.70;;;;;;;;;;4973379;28;20110;-56
2022/10/07 03:07:16;;;;;;;28.52;19.65;;;;;;;;;;4973105;28;20034;-57
2022/10/07 03:09:42;;;;;;;30.70;21.35;;;;;;;;;;4973256;28;20035;-57
2022/10/07 03:12:08;;;;;;;29.20;20.58;;;;;;;;;;4972976;28;20042;-57
2022/10/07 03:14:34;;;;;;;33.95;21.63;;;;;;;;;;4973120;28;20027;-58
2022/10/07 03:17:01;;;;;;;34.80;22.77;;;;;;;;;;4972732;28;20072;-56
2022/10/07 03:19:27;;;;;;;38.08;22.98;;;;;;;;;;4973157;28;20035;-57
2022/10/07 03:21:53;;;;;;;33.97;21.70;;;;;;;;;;4973066;28;20030;-56
2022/10/07 03:24:19;;;;;;;36.97;23.05;;;;;;;;;;4972647;28;20027;-57
2022/10/07 03:26:45;;;;;;;36.83;23.73;;;;;;;;;;4972787;28;20047;-57
2022/10/07 03:29:12;;;;;;;36.65;23.90;;;;;;;;;;4973014;28;20494;-57
2022/10/07 03:31:41;;;;;;;30.95;21.67;;;;;;;;;;4972983;28;20402;-62
2022/10/07 03:34:08;;;;;;;32.03;23.55;;;;;;;;;;4972738;28;20026;-57
2022/10/07 03:36:34;;;;;;;33.92;22.95;;;;;;;;;;4972529;28;20038;-57
2022/10/07 03:39:00;;;;;;;32.33;23.33;;;;;;;;;;4972463;28;20070;-57
2022/10/07 03:41:26;;;;;;;35.25;24.35;;;;;;;;;;4972634;28;20430;-57
2022/10/07 03:43:58;;;;;;;33.90;23.20;;;;;;;;;;4972049;28;20382;-57
2022/10/07 03:46:24;;;;;;;34.35;22.88;;;;;;;;;;4972671;28;20069;-57
2022/10/07 03:48:51;;;;;;;33.28;23.45;;;;;;;;;;4972646;28;20417;-60
2022/10/07 03:51:17;;;;;;;35.83;24.13;;;;;;;;;;4972546;28;20114;-57
2022/10/07 03:53:43;;;;;;;35.17;23.90;;;;;;;;;;4972470;28;20106;-57
2022/10/07 03:56:09;;;;;;;36.63;24.13;;;;;;;;;;4972631;28;20105;-57
2022/10/07 03:58:35;;;;;;;31.02;22.30;;;;;;;;;;4972592;28;20118;-57
2022/10/07 04:01:08;;;;;;;33.00;23.50;;;;;;;;;;4972410;28;20078;-57
2022/10/07 04:03:34;;;;;;;31.30;22.60;;;;;;;;;;4972259;28;20062;-57
2022/10/07 04:06:02;;;;;;;34.80;22.20;;;;;;;;;;4972367;28;20498;-57
2022/10/07 04:08:28;;;;;;;36.28;22.20;;;;;;;;;;4972056;28;20058;-57
2022/10/07 04:10:56;;;;;;;29.45;21.17;;;;;;;;;;4972011;28;20467;-57
2022/10/07 04:13:22;;;;;;;38.50;24.02;;;;;;;;;;4971835;28;20046;-57
2022/10/07 04:15:48;;;;;;;34.72;22.80;;;;;;;;;;4972035;28;20125;-57
2022/10/07 04:18:14;;;;;;;36.88;23.55;;;;;;;;;;4971592;28;20046;-57
2022/10/07 04:20:40;;;;;;;35.78;23.80;;;;;;;;;;4971808;28;20081;-57
2022/10/07 04:23:06;;;;;;;36.45;23.83;;;;;;;;;;4972049;28;20136;-57
2022/10/07 04:25:32;;;;;;;32.25;24.15;;;;;;;;;;4972066;28;20492;-56
2022/10/07 04:27:59;;;;;;;33.90;24.63;;;;;;;;;;4972145;28;20070;-56
2022/10/07 04:30:27;;;;;;;39.83;24.58;;;;;;;;;;4971747;28;20030;-56
2022/10/07 04:32:53;;;;;;;35.58;24.15;;;;;;;;;;4971571;28;20034;-57
2022/10/07 04:35:21;;;;;;;33.53;23.55;;;;;;;;;;4971892;28;20023;-56
2022/10/07 04:37:53;;;;;;;37.92;24.67;;;;;;;;;;4974061;28;20498;-57
2022/10/07 04:40:19;;;;;;;37.15;24.58;;;;;;;;;;4975998;28;20557;-56
2022/10/07 04:45:34;;;;;;;39.78;24.92;;;;;;;;;;4975625;28;20045;-57
2022/10/07 04:48:01;;;;;;;37.25;23.60;;;;;;;;;;4975834;28;20437;-55
2022/10/07 04:50:27;;;;;;;37.85;24.52;;;;;;;;;;4975917;28;20033;-56
2022/10/07 04:52:53;;;;;;;36.17;25.65;;;;;;;;;;4975805;28;20031;-57
2022/10/07 04:55:20;;;;;;;37.03;24.38;;;;;;;;;;4975681;28;20110;-57
2022/10/07 04:57:46;;;;;;;41.22;24.75;;;;;;;;;;4975438;28;20038;-56
2022/10/07 05:00:12;;;;;;;37.17;24.13;;;;;;;;;;4975686;28;20057;-56
2022/10/07 05:02:38;;;;;;;36.10;23.02;;;;;;;;;;4975339;28;20026;-57
2022/10/07 05:05:05;;;;;;;34.22;23.88;;;;;;;;;;4974710;28;20027;-57
2022/10/07 05:07:31;;;;;;;37.00;25.42;;;;;;;;;;4975380;28;20054;-77
2022/10/07 05:09:57;;;;;;;37.13;24.30;;;;;;;;;;4975500;28;20463;-57
2022/10/07 05:12:25;;;;;;;37.90;24.02;;;;;;;;;;4975103;28;20069;-58
2022/10/07 05:14:51;;;;;;;34.63;23.23;;;;;;;;;;4975279;28;20026;-56
2022/10/07 05:17:18;;;;;;;33.85;24.00;;;;;;;;;;4975208;28;20121;-56
2022/10/07 05:19:44;;;;;;;37.83;24.13;;;;;;;;;;4980625;28;20080;-56
2022/10/07 05:22:10;;;;;;;50.85;25.77;;;;;;;;;;4994720;28;20054;-56
2022/10/07 05:24:36;;;;;;;48.17;26.38;;;;;;;;;;4994643;28;20478;-56
2022/10/07 05:27:02;;;;;;;42.20;26.02;;;;;;;;;;4994611;28;20438;-57
2022/10/07 05:29:28;;;;;;;41.08;25.63;;;;;;;;;;4994757;28;20101;-57
2022/10/07 05:31:54;;;;;;;33.22;23.88;;;;;;;;;;4994626;28;20451;-57
2022/10/07 05:34:20;;;;;;;39.40;24.88;;;;;;;;;;4994348;28;20033;-57
2022/10/07 05:36:46;;;;;;;40.10;25.63;;;;;;;;;;4994228;28;20046;-57
2022/10/07 05:39:13;;;;;;;41.47;24.70;;;;;;;;;;4993946;28;20437;-57
2022/10/07 05:41:39;;;;;;;39.60;25.40;;;;;;;;;;4993993;28;20113;-57
2022/10/07 05:44:05;;;;;;;37.22;24.52;;;;;;;;;;4993039;28;20073;-57
2022/10/07 05:46:32;;;;;;;44.33;25.70;;;;;;;;;;4993677;28;20065;-57
2022/10/07 05:48:58;;;;;;;43.15;25.55;;;;;;;;;;4992406;28;20459;-69
2022/10/07 05:51:25;;;;;;;39.10;24.88;;;;;;;;;;4993705;28;20026;-67
2022/10/07 05:53:54;;;;;;;41.53;25.67;;;;;;;;;;4985626;28;20352;-57
2022/10/07 05:56:20;;;;;;;40.55;25.90;;;;;;;;;;4981123;28;20034;-63
2022/10/07 05:58:47;;;;;;;39.60;24.55;;;;;;;;;;4982682;28;20031;-74
2022/10/07 06:01:17;;;;;;;38.63;25.48;;;;;;;;;;4993162;28;20026;-57
2022/10/07 06:03:47;;;;;;;45.95;26.35;;;;;;;;;;4993294;28;20038;-57
2022/10/07 06:06:14;;;;;;;47.03;28.00;;;;;;;;;;4993743;28;20053;-57
2022/10/07 06:08:40;;;;;;;43.20;27.70;;;;;;;;;;4993213;28;20101;-57
2022/10/07 06:13:52;;;;;;;42.53;26.23;;;;;;;;;;4993684;28;20045;-57
2022/10/07 06:16:18;;;;;;;40.10;25.65;;;;;;;;;;4992992;28;20395;-57
2022/10/07 06:18:45;;;;;;;38.20;25.13;;;;;;;;;;4993196;28;20031;-57
2022/10/07 06:21:11;;;;;;;40.20;26.15;;;;;;;;;;4993250;28;20816;-58
2022/10/07 06:23:38;;;;;;;36.95;24.70;;;;;;;;;;4992807;28;20078;-62
2022/10/07 06:26:08;;;;;;;38.47;24.42;;;;;;;;;;4993287;28;20022;-57
2022/10/07 06:28:40;;;;;;;36.92;23.73;;;;;;;;;;4993140;28;20475;-57
2022/10/07 06:31:07;;;;;;;40.38;25.27;;;;;;;;;;4993076;28;20026;-57
2022/10/07 06:33:33;;;;;;;37.40;24.75;;;;;;;;;;4992786;28;20098;-57
2022/10/07 06:36:07;;;;;;;33.90;23.60;;;;;;;;;;4992946;28;20038;-57
2022/10/07 06:38:33;;;;;;;33.78;23.95;;;;;;;;;;4992609;28;20073;-62
2022/10/07 06:41:00;;;;;;;35.22;24.13;;;;;;;;;;4992941;28;20030;-57
2022/10/07 06:43:27;;;;;;;32.85;23.23;;;;;;;;;;4988155;28;20121;-57
2022/10/07 06:45:57;;;;;;;32.55;23.38;;;;;;;;;;4985325;28;20026;-56
2022/10/07 06:48:23;;;;;;;32.05;23.70;;;;;;;;;;4979203;28;20022;-57
2022/10/07 06:50:53;;;;;;;34.35;23.15;;;;;;;;;;4972684;28;20050;-57
2022/10/07 06:53:19;;;;;;;33.92;22.80;;;;;;;;;;4964793;28;20088;-57
2022/10/07 06:55:45;;;;;;;28.92;22.77;;;;;;;;;;4963667;28;20089;-56
2022/10/07 06:58:12;;;;;;;34.38;22.23;;;;;;;;;;4967977;28;20118;-60
2022/10/07 07:00:38;;;;;;;32.15;22.40;;;;;;;;;;4969926;28;20069;-56
2022/10/07 07:03:04;;;;;;;26.38;20.98;;;;;;;;;;4973323;28;20058;-56
2022/10/07 07:05:34;;;;;;;32.25;20.08;;;;;;;;;;4972655;28;20034;-56
2022/10/07 07:08:01;;;;;;;26.52;19.48;;;;;;;;;;4973169;28;20263;-56
2022/10/07 07:10:27;;;;;;;30.90;20.80;;;;;;;;;;4973200;28;20503;-78
2022/10/07 07:12:53;;;;;;;32.35;21.02;;;;;;;;;;4972959;28;20042;-57
2022/10/07 07:15:20;;;;;;;31.98;21.73;;;;;;;;;;4972355;28;20023;-57
2022/10/07 07:17:46;;;;;;;28.58;21.42;;;;;;;;;;4971953;28;20463;-55
2022/10/07 07:20:13;;;;;;;31.25;21.70;;;;;;;;;;4972165;28;20463;-57
2022/10/07 07:22:39;;;;;;;32.72;21.75;;;;;;;;;;4972570;28;20494;-57
2022/10/07 07:25:05;;;;;;;30.42;21.02;;;;;;;;;;4972781;28;20019;-59
2022/10/07 07:27:31;;;;;;;24.55;18.77;;;;;;;;;;4972398;28;20030;-57
2022/10/07 07:29:57;;;;;;;27.45;19.30;;;;;;;;;;4972744;28;20050;-57
2022/10/07 07:32:24;;;;;;;28.35;19.63;;;;;;;;;;4972566;28;20106;-57
2022/10/07 07:34:50;;;;;;;27.25;19.60;;;;;;;;;;4972461;28;20023;-57
2022/10/07 07:37:16;;;;;;;30.45;19.85;;;;;;;;;;4972249;28;20081;-79
2022/10/07 07:39:43;;;;;;;33.70;20.63;;;;;;;;;;4972456;28;20070;-57
2022/10/07 07:42:10;;;;;;;29.73;21.02;;;;;;;;;;4972546;28;20054;-57
2022/10/07 07:44:37;;;;;;;33.40;19.95;;;;;;;;;;4972104;28;20046;-57
2022/10/07 07:47:05;;;;;;;28.42;18.95;;;;;;;;;;4972140;28;20030;-58
2022/10/07 07:49:32;;;;;;;30.88;20.00;;;;;;;;;;4972097;28;20022;-57
2022/10/07 07:51:59;;;;;;;31.80;19.90;;;;;;;;;;4971948;28;20023;-57
2022/10/07 07:54:26;;;;;;;33.78;20.90;;;;;;;;;;4971988;28;20110;-57
2022/10/07 07:56:55;;;;;;;30.27;20.52;;;;;;;;;;4971694;28;20034;-57
2022/10/07 07:59:22;;;;;;;29.08;20.88;;;;;;;;;;4972196;28;20031;-56
2022/10/07 08:01:48;;;;;;;26.65;19.30;;;;;;;;;;4971723;28;20429;-56
2022/10/07 08:04:14;;;;;;;23.33;18.55;;;;;;;;;;4971622;28;20022;-56
2022/10/07 08:06:41;;;;;;;24.95;18.83;;;;;;;;;;4972192;28;20023;-55
2022/10/07 08:09:07;;;;;;;29.13;19.23;;;;;;;;;;4971801;28;20051;-57
2022/10/07 08:11:33;;;;;;;29.60;18.92;;;;;;;;;;4970988;28;20065;-56
2022/10/07 08:14:02;;;;;;;28.63;17.55;;;;;;;;;;4971412;28;20027;-56
2022/10/07 08:16:28;;;;;;;24.52;15.60;;;;;;;;;;4971902;28;20069;-56
2022/10/07 08:18:56;;;;;;;26.20;16.98;;;;;;;;;;4971907;28;20519;-56
2022/10/07 08:21:23;;;;;;;22.30;14.98;;;;;;;;;;4971807;28;20062;-56
2022/10/07 08:23:57;;;;;;;20.67;14.95;;;;;;;;;;4971798;28;20030;-56
2022/10/07 08:26:23;;;;;;;20.00;14.25;;;;;;;;;;4971267;28;20015;-56
2022/10/07 08:28:49;;;;;;;20.65;13.93;;;;;;;;;;4971876;28;20038;-56
2022/10/07 08:31:17;;;;;;;24.98;15.05;;;;;;;;;;4971607;28;20668;-55
2022/10/07 08:33:44;;;;;;;18.00;12.55;;;;;;;;;;4971716;28;20116;-56
2022/10/07 08:36:12;;;;;;;19.63;13.57;;;;;;;;;;4971762;28;20042;-56
2022/10/07 08:38:38;;;;;;;20.75;12.95;;;;;;;;;;4971693;28;20089;-56
2022/10/07 08:41:14;;;;;;;18.38;11.52;;;;;;;;;;4971403;28;20438;-55
2022/10/07 08:43:43;;;;;;;16.58;12.05;;;;;;;;;;4971245;28;20113;-57
2022/10/07 08:46:13;;;;;;;17.00;11.02;;;;;;;;;;4971399;28;20035;-72
2022/10/07 08:48:40;;;;;;;17.92;9.27;;;;;;;;;;4971286;28;20077;-55
2022/10/07 08:51:12;;;;;;;15.60;7.95;;;;;;;;;;4988321;28;20466;-54
2022/10/07 08:53:39;;;;;;;13.27;7.75;;;;;;;;;;4987476;28;20513;-55
2022/10/07 08:56:23;;;;;;;14.05;6.78;;;;;;;;;;4990998;28;20088;-55
2022/10/07 08:58:54;;;;;;;12.73;8.02;;;;;;;;;;4991067;28;20099;-55
2022/10/07 09:01:32;;;;;;;14.85;9.40;;;;;;;;;;4990989;28;20471;-56
2022/10/07 09:04:01;;;;;;;18.13;10.60;;;;;;;;;;4990511;28;20027;-73
2022/10/07 09:06:29;;;;;;;14.45;11.13;;;;;;;;;;4991026;28;20042;-74
2022/10/07 09:08:58;;;;;;;20.02;11.20;;;;;;;;;;4990875;28;20042;-56
2022/10/07 09:11:25;;;;;;;22.52;13.40;;;;;;;;;;4990697;28;20026;-58
2022/10/07 09:14:03;;;;;;;21.20;13.93;;;;;;;;;;4990871;28;20037;-56
2022/10/07 09:16:32;;;;;;;22.70;15.07;;;;;;;;;;4990516;28;20786;-56
2022/10/07 09:18:59;;;;;;;21.63;14.80;;;;;;;;;;4990568;28;20026;-55
2022/10/07 09:21:42;;;;;;;24.92;14.50;;;;;;;;;;4990855;28;20394;-56
2022/10/07 09:24:23;;;;;;;22.95;15.50;;;;;;;;;;4993483;28;20493;-56
2022/10/07 09:26:51;;;;;;;22.38;15.35;;;;;;;;;;4994303;28;20089;-56
2022/10/07 09:29:19;;;;;;;23.52;15.15;;;;;;;;;;4994109;28;20045;-55
2022/10/07 09:31:45;;;;;;;24.55;15.73;;;;;;;;;;4994146;28;20034;-61
2022/10/07 09:34:21;;;;;;;26.42;15.02;;;;;;;;;;4993840;28;20038;-55
2022/10/07 09:37:05;;;;;;;22.65;15.25;;;;;;;;;;4994033;28;20061;-55
2022/10/07 09:39:31;;;;;;;23.10;15.75;;;;;;;;;;4993992;28;20038;-55
2022/10/07 09:41:57;;;;;;;21.80;13.82;;;;;;;;;;4994180;28;20022;-56
2022/10/07 09:44:28;;;;;;;23.08;14.68;;;;;;;;;;4993809;28;20085;-55
2022/10/07 09:46:58;;;;;;;27.35;15.77;;;;;;;;;;4994028;28;20026;-55
2022/10/07 09:49:27;;;;;;;24.65;15.93;;;;;;;;;;4993671;28;20128;-55
2022/10/07 09:52:07;;;;;;;24.98;15.68;;;;;;;;;;4993672;28;20027;-55
2022/10/07 09:54:34;;;;;;;25.10;16.02;;;;;;;;;;4993644;28;20023;-56
2022/10/07 09:57:02;;;;;;;25.17;15.02;;;;;;;;;;4993327;28;20042;-57
2022/10/07 09:59:32;;;;;;;21.70;14.85;;;;;;;;;;4993356;28;20390;-57
2022/10/07 10:02:13;;;;;;;23.23;14.90;;;;;;;;;;4993716;28;20026;-56
2022/10/07 10:05:00;;;;;;;20.73;10.48;;;;;;;;;;4993836;28;20387;-55
2022/10/07 10:07:34;;;;;;;21.30;13.10;;;;;;;;;;4992941;28;20034;-56
2022/10/07 10:10:05;;;;;;;20.10;12.50;;;;;;;;;;4993337;28;20034;-71
2022/10/07 10:12:38;;;;;;;17.70;11.70;;;;;;;;;;4993502;28;20037;-57
2022/10/07 10:15:16;;;;;;;18.23;11.02;;;;;;;;;;4992766;28;20038;-55
2022/10/07 10:17:42;;;;;;;17.95;10.13;;;;;;;;;;4993124;28;20111;-56
2022/10/07 10:20:28;;;;;;;17.88;10.73;;;;;;;;;;4992929;28;20030;-57
2022/10/07 10:22:54;;;;;;;17.45;9.93;;;;;;;;;;4993094;28;20034;-56
2022/10/07 10:28:28;;;;;;;15.95;9.55;;;;;;;;;;4992754;28;20042;-55
2022/10/07 10:30:59;;;;;;;14.95;9.05;;;;;;;;;;4993005;28;20397;-56
2022/10/07 10:33:52;;;;;;;17.02;9.45;;;;;;;;;;4992459;28;20026;-55
2022/10/07 10:36:23;;;;;;;16.85;9.68;;;;;;;;;;4987477;28;20069;-58
2022/10/07 10:39:11;;;;;;;14.80;8.77;;;;;;;;;;4992697;28;20081;-74
2022/10/07 10:41:44;;;;;;;14.35;8.68;;;;;;;;;;4992268;28;20031;-55
2022/10/07 10:44:19;;;;;;;17.55;9.40;;;;;;;;;;4991769;28;20069;-61
2022/10/07 10:46:57;;;;;;;18.98;9.55;;;;;;;;;;4992472;28;20030;-70
2022/10/07 10:49:49;;;;;;;16.08;9.00;;;;;;;;;;4992556;28;20058;-55
2022/10/07 10:52:16;;;;;;;19.65;9.77;;;;;;;;;;4955685;28;20042;-56
2022/10/07 10:55:01;;;;;;;17.48;10.50;;;;;;;;;;4992440;28;20494;-56
2022/10/07 10:57:45;;;;;;;19.52;10.85;;;;;;;;;;4991894;28;20030;-56
2022/10/07 11:00:17;;;;;;;17.88;11.02;;;;;;;;;;4992251;28;20061;-56
2022/10/07 11:02:43;;;;;;;16.00;8.95;;;;;;;;;;4992496;28;20516;-56
2022/10/07 11:05:21;;;;;;;16.33;9.00;;;;;;;;;;4992057;28;20109;-56
2022/10/07 11:07:57;;;;;;;17.58;8.68;;;;;;;;;;4991412;28;20041;-56
2022/10/07 11:10:25;;;;;;;14.68;8.38;;;;;;;;;;4991996;28;20042;-56
2022/10/07 11:13:14;;;;;;;12.85;7.22;;;;;;;;;;4992200;28;20037;-56
2022/10/07 11:16:06;;;;;;;13.32;7.15;;;;;;;;;;4979488;28;20046;-56
2022/10/07 11:18:47;;;;;;;13.88;7.40;;;;;;;;;;4954573;28;20058;-56
2022/10/07 11:21:17;;;;;;;10.02;6.47;;;;;;;;;;4991909;28;20026;-56
2022/10/07 11:23:49;;;;;;;12.43;6.80;;;;;;;;;;4974506;28;20351;-56
2022/10/07 11:26:15;;;;;;;15.75;6.50;;;;;;;;;;4991643;28;20027;-56
2022/10/07 11:28:42;;;;;;;11.85;6.78;;;;;;;;;;4990945;28;20015;-54
2022/10/07 11:31:31;;;;;;;12.10;6.20;;;;;;;;;;4991472;28;20165;-56
2022/10/07 11:34:13;;;;;;;13.80;6.50;;;;;;;;;;4976265;28;20510;-54
2022/10/07 11:36:55;;;;;;;11.63;6.65;;;;;;;;;;4991450;28;20038;-57
2022/10/07 11:39:22;;;;;;;14.45;6.43;;;;;;;;;;4991649;28;20478;-54
2022/10/07 11:41:52;;;;;;;10.65;6.07;;;;;;;;;;4991485;28;20160;-54
2022/10/07 11:44:31;;;;;;;11.35;6.18;;;;;;;;;;4991616;28;20418;-56
2022/10/07 11:47:00;;;;;;;12.57;6.45;;;;;;;;;;4991353;28;20035;-54
2022/10/07 11:49:37;;;;;;;11.63;6.22;;;;;;;;;;4991124;28;20069;-56
2022/10/07 11:52:05;;;;;;;10.75;6.13;;;;;;;;;;4991504;28;20037;-56
2022/10/07 11:54:39;;;;;;;11.27;6.47;;;;;;;;;;4991536;28;20033;-56
2022/10/07 11:57:05;;;;;;;14.23;5.95;;;;;;;;;;4991186;28;20038;-65
2022/10/07 11:59:40;;;;;;;11.43;6.13;;;;;;;;;;4991348;28;20030;-55
2022/10/07 12:02:26;;;;;;;12.68;5.80;;;;;;;;;;4991665;28;20045;-56
2022/10/07 12:04:52;;;;;;;12.18;5.53;;;;;;;;;;4991413;28;20033;-56
2022/10/07 12:07:37;;;;;;;8.43;5.15;;;;;;;;;;4991412;28;20026;-56
2022/10/07 12:10:06;;;;;;;8.30;4.82;;;;;;;;;;4990835;28;20045;-56
2022/10/07 12:12:42;;;;;;;9.20;5.00;;;;;;;;;;4991464;28;20038;-57
2022/10/07 12:15:28;;;;;;;8.57;4.50;;;;;;;;;;4991150;28;20077;-58
2022/10/07 12:17:54;;;;;;;8.02;4.60;;;;;;;;;;4893300;29;20067;-54
2022/10/07 12:20:43;;;;;;;9.73;4.53;;;;;;;;;;4893103;29;20041;-56
2022/10/07 12:23:18;;;;;;;10.10;4.82;;;;;;;;;;4892851;29;20382;-56
2022/10/07 12:25:45;;;;;;;8.85;4.07;;;;;;;;;;4877606;29;20404;-54
2022/10/07 12:28:23;;;;;;;8.02;4.32;;;;;;;;;;4892979;29;20568;-55
2022/10/07 12:30:51;;;;;;;16.17;4.50;;;;;;;;;;4893157;29;20072;-56
2022/10/07 12:33:36;;;;;;;6.93;4.57;;;;;;;;;;4892717;29;20489;-55
2022/10/07 12:36:17;;;;;;;7.95;3.85;;;;;;;;;;4892644;29;20041;-55
2022/10/07 12:38:43;;;;;;;7.05;4.28;;;;;;;;;;4893394;29;20584;-54
2022/10/07 12:41:19;;;;;;;9.20;4.47;;;;;;;;;;4892940;29;20025;-55
2022/10/07 12:44:05;;;;;;;8.13;4.95;;;;;;;;;;4893034;29;20056;-55
2022/10/07 12:46:33;;;;;;;8.05;4.35;;;;;;;;;;4893050;29;20033;-56
2022/10/07 12:49:18;;;;;;;10.55;4.47;;;;;;;;;;4892740;29;20036;-55
2022/10/07 12:51:44;;;;;;;10.18;4.15;;;;;;;;;;4892608;29;20078;-55
2022/10/07 12:54:19;;;;;;;8.70;4.28;;;;;;;;;;4907606;28;20508;-56
2022/10/07 12:56:46;;;;;;;11.73;4.35;;;;;;;;;;4990712;28;20054;-54
2022/10/07 13:02:23;;;;;;;10.77;5.20;;;;;;;;;;4994538;28;20092;-55
2022/10/07 13:05:01;;;;;;;11.98;5.18;;;;;;;;;;4994404;28;20034;-56
2022/10/07 13:07:40;;;;;;;12.50;5.07;;;;;;;;;;4994250;28;20113;-55
2022/10/07 13:10:11;;;;;;;8.38;4.72;;;;;;;;;;4994450;28;20062;-55
2022/10/07 13:12:50;;;;;;;7.55;4.15;;;;;;;;;;4994230;28;20030;-54
2022/10/07 13:15:28;;;;;;;9.68;4.72;;;;;;;;;;4994362;28;20034;-55
2022/10/07 13:17:58;;;;;;;10.70;5.47;;;;;;;;;;4994107;28;20054;-55
2022/10/07 13:20:47;;;;;;;11.27;4.97;;;;;;;;;;4993813;28;20038;-55
2022/10/07 13:23:18;;;;;;;11.18;5.00;;;;;;;;;;4980226;28;20039;-54
2022/10/07 13:25:45;;;;;;;9.27;4.90;;;;;;;;;;4993973;28;20102;-55
2022/10/07 13:28:15;;;;;;;11.18;6.68;;;;;;;;;;4993933;28;20089;-54
2022/10/07 13:30:42;;;;;;;13.43;7.30;;;;;;;;;;4993656;28;20110;-55
2022/10/07 13:33:29;;;;;;;14.48;8.05;;;;;;;;;;4994104;28;20029;-54
2022/10/07 13:36:06;;;;;;;12.18;6.68;;;;;;;;;;4993846;28;20033;-55
2022/10/07 13:38:32;;;;;;;12.52;6.82;;;;;;;;;;4993161;28;20042;-55
2022/10/07 13:41:03;;;;;;;14.80;6.53;;;;;;;;;;4993747;28;20081;-55
2022/10/07 13:43:30;;;;;;;12.23;6.15;;;;;;;;;;4993434;28;20067;-58
2022/10/07 13:45:57;;;;;;;10.70;6.18;;;;;;;;;;4993602;28;20030;-54
2022/10/07 13:48:25;;;;;;;14.73;6.13;;;;;;;;;;4993185;28;20026;-55
2022/10/07 13:50:53;;;;;;;12.77;5.60;;;;;;;;;;4993536;28;20057;-56
2022/10/07 13:53:21;;;;;;;9.40;5.25;;;;;;;;;;4993266;28;20030;-55
2022/10/07 13:55:47;;;;;;;13.63;5.50;;;;;;;;;;4975843;28;20129;-55
2022/10/07 13:58:13;;;;;;;11.65;5.60;;;;;;;;;;4992887;28;20050;-56
2022/10/07 14:00:45;;;;;;;8.88;5.25;;;;;;;;;;4993450;28;20030;-55
2022/10/07 14:03:11;;;;;;;;;;;;;;;;;;4993634;28;20113;-55
2022/10/07 14:05:45;;;;;;;9.07;5.35;;;;;;;;;;4993479;28;20012;-55
2022/10/07 14:08:13;;;;;;;11.75;5.70;;;;;;;;;;4993257;28;20430;-55
2022/10/07 14:10:49;;;;;;;10.43;5.63;;;;;;;;;;4992135;28;20046;-56
2022/10/07 14:13:15;;;;;;;13.38;6.50;;;;;;;;;;4993299;28;20026;-55
2022/10/07 14:15:46;;;;;;;11.55;7.43;;;;;;;;;;4993052;28;20030;-61
2022/10/07 14:18:14;;;;;;;15.32;8.00;;;;;;;;;;4993361;28;20462;-62
2022/10/07 14:20:43;;;;;;;13.60;7.20;;;;;;;;;;4975417;28;20029;-56
2022/10/07 14:23:25;;;;;;;11.93;7.68;;;;;;;;;;4993261;28;20490;-67
2022/10/07 14:25:55;;;;;;;11.27;7.10;;;;;;;;;;4992790;28;20023;-59
2022/10/07 14:28:24;;;;;;;12.70;6.80;;;;;;;;;;4992496;28;20026;-56
2022/10/07 14:37:02;;;;;;;12.60;6.30;;;;;;;;;;4992859;28;20169;-56
2022/10/07 14:39:33;;;;;;;13.05;6.57;;;;;;;;;;4974698;28;20030;-55
2022/10/07 14:42:00;;;;;;;11.93;7.43;;;;;;;;;;4992388;28;20158;-55
2022/10/07 14:44:26;;;;;;;16.23;7.72;;;;;;;;;;4992648;28;20141;-56
2022/10/07 14:47:06;;;;;;;10.75;6.80;;;;;;;;;;4992558;28;20038;-60
2022/10/07 14:49:32;;;;;;;13.95;7.70;;;;;;;;;;4992864;28;20088;-56
2022/10/07 14:51:59;;;;;;;16.05;8.85;;;;;;;;;;4992070;28;20467;-56
2022/10/07 14:54:25;;;;;;;15.18;7.95;;;;;;;;;;4992288;28;20038;-69
2022/10/07 14:56:51;;;;;;;18.67;8.82;;;;;;;;;;4992541;28;20041;-69